Time;durP1;ratioP1;P1;durP2;ratioP2;P2;SDS_P1;SDS_P2;PMS_P1;PMS_P2;Temp;Humidity;BMP_temperature;BMP_pressure;BME280_temperature;BME280_humidity;BME280_pressure;Samples;Min_cycle;Max_cycle;Signal;HPM_P1;HPM_P2
2021/04/04 00:04:07;;;;;;;4.55;3.10;;;2.90;99.90;;;;;;20999145;28;20035;-79
2021/04/04 00:14:08;;;;;;;6.38;3.63;;;3.10;99.90;;;;;;20990106;28;20122;-82
2021/04/04 00:24:10;;;;;;;8.48;3.33;;;3.00;99.90;;;;;;20966518;28;20043;-77
2021/04/04 00:34:10;;;;;;;;;;;3.00;99.90;;;;;;20986007;28;20036;-79
2021/04/04 00:44:12;;;;;;;9.85;3.35;;;3.00;99.90;;;;;;20970298;28;20214;-79
2021/04/04 00:54:14;;;;;;;8.13;3.42;;;2.90;99.90;;;;;;20984553;28;20488;-79
2021/04/04 01:04:15;;;;;;;36.55;12.88;;;3.00;99.90;;;;;;20983155;28;20032;-79
2021/04/04 01:14:36;;;;;;;9.15;4.75;;;2.60;99.90;;;;;;20990979;28;20062;-78
2021/04/04 01:24:49;;;;;;;7.35;3.70;;;2.40;99.90;;;;;;20977617;28;20036;-79
2021/04/04 01:34:50;;;;;;;11.15;4.47;;;1.90;99.90;;;;;;20986898;28;20116;-81
2021/04/04 01:44:52;;;;;;;8.15;3.85;;;1.80;99.90;;;;;;20986002;28;20069;-78
2021/04/04 01:54:56;;;;;;;7.00;3.95;;;2.00;99.90;;;;;;20968140;28;20032;-79
2021/04/04 02:04:59;;;;;;;7.90;3.20;;;2.30;99.90;;;;;;20983098;28;20036;-78
2021/04/04 02:15:01;;;;;;;18.80;4.55;;;2.50;99.90;;;;;;20902915;28;20041;-82
2021/04/04 02:25:03;;;;;;;10.20;3.72;;;2.30;99.90;;;;;;20917945;28;20033;-79
2021/04/04 02:35:07;;;;;;;9.80;3.40;;;2.30;99.90;;;;;;20911203;28;20105;-79
2021/04/04 02:45:09;;;;;;;16.42;3.97;;;2.20;99.90;;;;;;20892891;28;20044;-80
2021/04/04 02:55:12;;;;;;;7.32;3.38;;;1.80;99.90;;;;;;20907965;28;20568;-79
2021/04/04 03:05:14;;;;;;;7.45;3.22;;;1.70;99.90;;;;;;20945381;23;20502;-76
2021/04/04 03:15:17;;;;;;;7.53;3.58;;;1.80;99.90;;;;;;20908807;28;20487;-76
2021/04/04 03:25:19;;;;;;;12.52;3.92;;;1.90;99.90;;;;;;20871142;28;20064;-77
2021/04/04 03:35:20;;;;;;;8.02;3.60;;;1.60;99.90;;;;;;20970121;28;20033;-77
2021/04/04 03:45:21;;;;;;;;;;;1.40;99.90;;;;;;21012859;28;20130;-77
2021/04/04 03:55:24;;;;;;;10.13;4.07;;;1.20;99.90;;;;;;21010399;28;19913;-78
2021/04/04 04:05:25;;;;;;;7.80;3.80;;;1.40;99.90;;;;;;21009861;28;20039;-77
2021/04/04 04:15:27;;;;;;;7.40;4.03;;;1.20;99.90;;;;;;21011063;28;20089;-77
2021/04/04 04:25:30;;;;;;;10.93;3.70;;;1.40;99.90;;;;;;21008994;28;20470;-77
2021/04/04 04:35:32;;;;;;;9.88;3.72;;;1.20;99.90;;;;;;21006458;28;20093;-77
2021/04/04 04:45:39;;;;;;;8.05;3.58;;;1.50;99.90;;;;;;20988627;28;20059;-77
2021/04/04 04:55:42;;;;;;;19.48;3.65;;;1.80;99.90;;;;;;21009206;28;20037;-77
2021/04/04 05:05:43;;;;;;;7.22;3.28;;;1.70;99.90;;;;;;20932139;28;20124;-77
2021/04/04 05:15:45;;;;;;;;;;;1.80;99.90;;;;;;20925026;28;20040;-77
2021/04/04 05:25:46;;;;;;;9.00;3.10;;;1.70;99.90;;;;;;20922168;28;19966;-77
2021/04/04 05:35:47;;;;;;;7.47;3.30;;;2.10;99.90;;;;;;20903889;28;20029;-78
2021/04/04 05:45:59;;;;;;;5.30;2.75;;;2.30;99.90;;;;;;20922270;28;20135;-78
2021/04/04 05:56:36;;;;;;;9.95;3.78;;;2.60;99.90;;;;;;20919686;28;20033;-77
2021/04/04 06:07:19;;;;;;;9.73;3.00;;;2.90;99.90;;;;;;20867491;28;20029;-78
2021/04/04 06:17:25;;;;;;;;;;;3.20;99.90;;;;;;20796999;28;20045;-81
2021/04/04 06:27:45;;;;;;;8.40;2.92;;;4.10;99.90;;;;;;20825393;28;20063;-76
2021/04/04 06:38:20;;;;;;;7.22;2.88;;;4.80;99.90;;;;;;20831413;28;20042;-79
2021/04/04 06:48:34;;;;;;;15.35;3.03;;;5.40;99.90;;;;;;20837036;28;20048;-78
2021/04/04 06:58:57;;;;;;;15.35;2.83;;;5.40;99.90;;;;;;20838479;28;20500;-79
2021/04/04 07:09:02;;;;;;;8.18;3.67;;;6.00;99.90;;;;;;20836368;28;20026;-78
2021/04/04 07:19:34;;;;;;;7.28;3.05;;;7.30;99.90;;;;;;20839917;28;20439;-78
2021/04/04 07:29:51;;;;;;;8.32;2.97;;;8.30;99.90;;;;;;20847435;28;20127;-77
2021/04/04 07:40:14;;;;;;;5.60;2.70;;;8.50;99.90;;;;;;20845379;28;20144;-77
2021/04/04 07:50:26;;;;;;;8.90;3.30;;;9.60;99.90;;;;;;20811867;28;20045;-78
2021/04/04 08:00:29;;;;;;;6.47;2.53;;;9.60;99.90;;;;;;20842435;28;20047;-78
2021/04/04 08:10:31;;;;;;;6.97;2.38;;;9.30;99.90;;;;;;20910221;28;20035;-76
2021/04/04 08:20:50;;;;;;;7.25;2.63;;;10.80;99.90;;;;;;20868714;28;20025;-75
2021/04/04 08:30:56;;;;;;;5.82;2.60;;;11.20;99.90;;;;;;20846803;28;20033;-75
2021/04/04 08:40:59;;;;;;;7.78;2.35;;;11.60;98.60;;;;;;20897061;28;20033;-76
2021/04/04 08:51:07;;;;;;;4.22;1.77;;;11.60;99.40;;;;;;20872593;28;20106;-75
2021/04/04 09:01:21;;;;;;;7.00;2.20;;;12.30;98.70;;;;;;20866854;28;20025;-75
2021/04/04 09:11:22;;;;;;;5.07;2.22;;;13.00;95.80;;;;;;20980616;23;20084;-76
2021/04/04 09:21:24;;;;;;;6.90;2.28;;;13.10;93.50;;;;;;20899947;28;20025;-76
2021/04/04 09:31:30;;;;;;;5.43;2.00;;;13.40;92.30;;;;;;20883128;28;20041;-75
2021/04/04 09:41:32;;;;;;;11.93;1.77;;;14.30;91.00;;;;;;20829229;28;20483;-76
2021/04/04 09:51:46;;;;;;;4.03;1.63;;;14.40;88.80;;;;;;20831154;28;20291;-76
2021/04/04 10:01:47;;;;;;;4.13;2.03;;;14.40;87.20;;;;;;20832258;28;20041;-75
2021/04/04 10:11:59;;;;;;;6.90;2.77;;;14.50;85.80;;;;;;20834727;28;20033;-75
2021/04/04 10:22:00;;;;;;;922.30;495.17;;;14.30;87.10;;;;;;20875759;28;20055;-75
2021/04/04 10:32:01;;;;;;;21.73;12.30;;;15.30;76.50;;;;;;20866731;28;20130;-76
2021/04/04 10:42:16;;;;;;;13.93;8.07;;;15.80;74.70;;;;;;20843500;28;20048;-76
2021/04/04 10:52:17;;;;;;;11.43;6.43;;;16.00;71.70;;;;;;20846985;28;20270;-76
2021/04/04 11:02:19;;;;;;;3.20;2.13;;;15.80;69.60;;;;;;20878947;28;20032;-76
2021/04/04 11:12:21;;;;;;;6.85;2.85;;;16.80;68.70;;;;;;20843920;28;20021;-76
2021/04/04 11:22:23;;;;;;;4.73;1.87;;;16.20;72.70;;;;;;20865623;28;20037;-75
2021/04/04 11:32:23;;;;;;;;;;;16.90;72.50;;;;;;20875023;28;20657;-75
2021/04/04 11:42:24;;;;;;;8.10;2.27;;;16.30;75.00;;;;;;20868492;28;19916;-75
2021/04/04 11:52:25;;;;;;;4.82;1.80;;;17.20;67.20;;;;;;20871342;28;20430;-75
2021/04/04 12:02:28;;;;;;;4.70;1.83;;;17.50;65.70;;;;;;20850033;28;20025;-75
2021/04/04 12:12:32;;;;;;;7.13;2.40;;;17.00;71.40;;;;;;20844643;28;20037;-75
2021/04/04 12:22:39;;;;;;;4.07;1.83;;;17.60;67.50;;;;;;20848595;28;20099;-75
2021/04/04 12:32:42;;;;;;;6.55;2.08;;;17.10;68.80;;;;;;20812282;28;20072;-75
2021/04/04 12:42:44;;;;;;;4.20;2.10;;;17.50;64.80;;;;;;20821659;28;20552;-75
2021/04/04 12:52:53;;;;;;;4.25;1.77;;;18.00;62.80;;;;;;20833957;28;20046;-74
2021/04/04 13:03:17;;;;;;;3.70;1.63;;;18.00;63.80;;;;;;20812824;28;20033;-76
2021/04/04 13:13:19;;;;;;;5.20;1.63;;;18.20;61.70;;;;;;20844235;28;20033;-75
2021/04/04 13:23:20;;;;;;;9.10;1.83;;;17.50;66.80;;;;;;20847461;28;20029;-75
2021/04/04 13:33:21;;;;;;;3.72;1.77;;;18.30;62.30;;;;;;20852627;28;20060;-75
2021/04/04 13:43:23;;;;;;;9.10;1.88;;;17.20;63.50;;;;;;20846394;28;20032;-75
2021/04/04 13:53:34;;;;;;;;;;;17.30;61.10;;;;;;20830494;28;20040;-75
2021/04/04 14:03:36;;;;;;;6.03;1.75;;;17.30;61.10;;;;;;20839917;28;19917;-75
2021/04/04 14:13:37;;;;;;;5.93;1.30;;;17.80;58.00;;;;;;20833741;28;20463;-75
2021/04/04 14:23:38;;;;;;;5.20;1.63;;;18.00;57.90;;;;;;20835298;28;20037;-75
2021/04/04 14:33:40;;;;;;;2.72;1.30;;;18.40;56.70;;;;;;20882741;28;20063;-76
2021/04/04 14:53:48;;;;;;;2.45;1.35;;;18.50;60.30;;;;;;20851611;28;21514;-74
2021/04/04 15:03:49;;;;;;;4.60;1.40;;;18.30;59.10;;;;;;20824358;28;20140;-76
2021/04/04 15:13:50;;;;;;;9.23;1.50;;;18.20;57.70;;;;;;20803704;28;20033;-76
2021/04/04 15:23:51;;;;;;;4.15;1.40;;;17.00;60.90;;;;;;20861231;28;20091;-75
2021/04/04 15:33:54;;;;;;;7.72;4.05;;;18.10;57.70;;;;;;20803192;28;20872;-75
2021/04/04 15:43:55;;;;;;;4.68;1.48;;;16.60;60.20;;;;;;20808378;28;20704;-74
2021/04/04 15:53:56;;;;;;;2.08;1.08;;;17.20;57.70;;;;;;20826672;28;20029;-75
2021/04/04 16:03:57;;;;;;;6.28;2.03;;;17.00;58.60;;;;;;20884609;28;20044;-75
2021/04/04 16:13:58;;;;;;;4.22;1.75;;;15.70;59.00;;;;;;20854701;28;20488;-75
2021/04/04 16:23:59;;;;;;;3.17;1.45;;;15.10;59.00;;;;;;20863606;28;20757;-77
2021/04/04 16:33:59;;;;;;;6.80;1.73;;;15.20;61.50;;;;;;20885945;28;20043;-77
2021/04/04 16:44:00;;;;;;;4.28;1.20;;;14.70;59.10;;;;;;20895449;28;20452;-77
2021/04/04 16:54:02;;;;;;;3.75;1.23;;;14.60;60.30;;;;;;20879438;28;20040;-77
2021/04/04 17:04:03;;;;;;;3.10;1.67;;;14.70;60.50;;;;;;20852839;28;20048;-78
2021/04/04 17:14:04;;;;;;;4.43;1.80;;;14.30;61.50;;;;;;20850933;28;20112;-77
2021/04/04 17:24:08;;;;;;;4.70;1.42;;;14.10;61.50;;;;;;20843641;28;20033;-77
2021/04/04 17:34:09;;;;;;;3.47;1.90;;;13.70;67.80;;;;;;20847948;28;20410;-74
2021/04/04 17:44:10;;;;;;;7.35;2.65;;;13.10;70.70;;;;;;20881064;28;20035;-77
2021/04/04 17:54:11;;;;;;;6.20;1.48;;;12.30;79.40;;;;;;20889518;28;20025;-75
2021/04/04 18:04:14;;;;;;;3.10;1.20;;;11.60;78.30;;;;;;20888285;28;20033;-75
2021/04/04 18:14:16;;;;;;;6.43;3.10;;;11.30;76.80;;;;;;20888416;28;20052;-76
2021/04/04 18:24:18;;;;;;;14.30;6.78;;;10.30;86.60;;;;;;20827422;28;20033;-75
2021/04/04 18:34:19;;;;;;;23.15;9.57;;;9.30;90.90;;;;;;20846029;28;20036;-75
2021/04/04 18:44:21;;;;;;;15.80;6.00;;;8.90;92.40;;;;;;20845595;28;20511;-78
2021/04/04 18:54:22;;;;;;;11.03;3.93;;;8.20;96.40;;;;;;20888275;28;20515;-76
2021/04/04 19:04:26;;;;;;;6.03;3.17;;;7.90;98.50;;;;;;20877511;28;20053;-77
2021/04/04 19:14:27;;;;;;;10.80;4.13;;;7.60;99.90;;;;;;20888100;28;20565;-76
2021/04/04 19:24:28;;;;;;;11.63;3.10;;;7.30;99.90;;;;;;20830305;28;20040;-76
2021/04/04 19:34:29;;;;;;;3.77;2.03;;;6.70;99.90;;;;;;20878280;28;20079;-76
2021/04/04 19:44:31;;;;;;;4.80;2.67;;;6.70;99.90;;;;;;20849309;28;20110;-77
2021/04/04 19:54:32;;;;;;;8.50;2.97;;;6.20;99.90;;;;;;20898138;28;20510;-76
2021/04/04 20:04:33;;;;;;;21.60;7.43;;;6.60;99.90;;;;;;20888488;28;20036;-77
2021/04/04 20:14:34;;;;;;;6.83;3.83;;;6.20;99.90;;;;;;20897488;28;20708;-77
2021/04/04 20:24:36;;;;;;;8.10;3.93;;;5.80;99.90;;;;;;20842027;28;20039;-77
2021/04/04 20:34:46;;;;;;;8.38;3.58;;;5.60;99.90;;;;;;20847389;28;20048;-78
2021/04/04 20:44:47;;;;;;;10.98;3.75;;;5.40;99.90;;;;;;20831947;28;20030;-77
2021/04/04 20:54:48;;;;;;;8.07;3.63;;;5.20;99.90;;;;;;20849481;28;20032;-77
2021/04/04 21:04:52;;;;;;;7.80;4.10;;;5.00;99.90;;;;;;20894594;28;20025;-76
2021/04/04 21:14:53;;;;;;;7.70;3.13;;;4.60;99.90;;;;;;20817336;28;20029;-76
2021/04/04 21:24:57;;;;;;;11.47;3.53;;;4.50;99.90;;;;;;20835048;28;20459;-77
2021/04/04 21:34:58;;;;;;;12.18;3.13;;;4.70;99.90;;;;;;20895450;28;20033;-77
2021/04/04 21:44:59;;;;;;;15.73;6.93;;;4.50;99.90;;;;;;20894369;28;20043;-77
2021/04/04 21:55:00;;;;;;;20.87;5.33;;;4.10;99.90;;;;;;20890335;28;20029;-75
2021/04/04 22:05:02;;;;;;;12.27;4.32;;;3.80;99.90;;;;;;20888375;28;20661;-75
2021/04/04 22:15:07;;;;;;;10.55;4.32;;;3.90;99.90;;;;;;20892794;28;20036;-77
2021/04/04 22:25:14;;;;;;;12.25;4.65;;;3.50;99.90;;;;;;20830840;28;20047;-75
2021/04/04 22:35:15;;;;;;;16.73;6.15;;;3.50;99.90;;;;;;20888527;28;20048;-77
2021/04/04 22:45:17;;;;;;;14.57;5.53;;;3.40;99.90;;;;;;20889284;28;20726;-77
2021/04/04 22:55:19;;;;;;;21.05;8.40;;;3.10;99.90;;;;;;20910546;28;20025;-76
2021/04/04 23:05:20;;;;;;;14.27;5.32;;;3.00;99.90;;;;;;20843881;28;20045;-77
2021/04/04 23:15:21;;;;;;;9.70;4.28;;;2.90;99.90;;;;;;20844066;28;20035;-75
2021/04/04 23:25:22;;;;;;;9.68;4.03;;;2.70;99.90;;;;;;20913479;28;20041;-75
2021/04/04 23:35:23;;;;;;;6.28;3.58;;;2.70;99.90;;;;;;20921907;28;20059;-76
2021/04/04 23:45:24;;;;;;;7.07;3.38;;;2.40;99.90;;;;;;20944308;28;20021;-75
2021/04/04 23:55:25;;;;;;;7.95;3.38;;;2.40;99.90;;;;;;20915268;28;20079;-77
